sensor_id;sensor_type;location;lat;lon;timestamp;P1;durP1;ratioP1;P2;durP2;ratioP2
64242;SDS011;50573;51.512;5.386;2023-03-01T00:08:46;14.48;;;8.43;;
64242;SDS011;50573;51.512;5.386;2023-03-01T00:18:50;15.60;;;9.02;;
64242;SDS011;50573;51.512;5.386;2023-03-01T00:28:54;15.82;;;9.52;;
64242;SDS011;50573;51.512;5.386;2023-03-01T00:39:00;15.40;;;9.25;;
64242;SDS011;50573;51.512;5.386;2023-03-01T00:49:04;17.13;;;9.30;;
64242;SDS011;50573;51.512;5.386;2023-03-01T00:59:08;16.73;;;9.35;;
64242;SDS011;50573;51.512;5.386;2023-03-01T01:09:14;13.38;;;9.55;;
64242;SDS011;50573;51.512;5.386;2023-03-01T01:19:21;16.83;;;10.05;;
64242;SDS011;50573;51.512;5.386;2023-03-01T01:29:24;15.35;;;9.65;;
64242;SDS011;50573;51.512;5.386;2023-03-01T01:39:29;15.18;;;9.48;;
64242;SDS011;50573;51.512;5.386;2023-03-01T01:49:33;22.95;;;11.07;;
64242;SDS011;50573;51.512;5.386;2023-03-01T01:59:42;16.95;;;9.88;;
64242;SDS011;50573;51.512;5.386;2023-03-01T02:09:49;19.48;;;10.55;;
64242;SDS011;50573;51.512;5.386;2023-03-01T02:19:59;14.70;;;8.88;;
64242;SDS011;50573;51.512;5.386;2023-03-01T02:30:12;22.25;;;10.25;;
64242;SDS011;50573;51.512;5.386;2023-03-01T02:50:25;17.20;;;9.10;;
64242;SDS011;50573;51.512;5.386;2023-03-01T03:00:55;16.90;;;9.85;;
64242;SDS011;50573;51.512;5.386;2023-03-01T03:11:04;13.95;;;8.88;;
64242;SDS011;50573;51.512;5.386;2023-03-01T03:21:08;13.73;;;9.25;;
64242;SDS011;50573;51.512;5.386;2023-03-01T03:31:14;15.67;;;9.97;;
64242;SDS011;50573;51.512;5.386;2023-03-01T03:41:17;16.50;;;9.30;;
64242;SDS011;50573;51.512;5.386;2023-03-01T03:51:22;14.10;;;9.37;;
64242;SDS011;50573;51.512;5.386;2023-03-01T04:01:25;14.73;;;8.82;;
64242;SDS011;50573;51.512;5.386;2023-03-01T04:11:29;15.35;;;8.98;;
64242;SDS011;50573;51.512;5.386;2023-03-01T04:31:36;22.73;;;11.20;;
64242;SDS011;50573;51.512;5.386;2023-03-01T04:41:39;14.70;;;8.98;;
64242;SDS011;50573;51.512;5.386;2023-03-01T04:51:45;20.80;;;10.88;;
64242;SDS011;50573;51.512;5.386;2023-03-01T05:01:48;17.70;;;9.73;;
64242;SDS011;50573;51.512;5.386;2023-03-01T05:11:53;19.58;;;9.02;;
64242;SDS011;50573;51.512;5.386;2023-03-01T05:21:56;14.60;;;8.98;;
64242;SDS011;50573;51.512;5.386;2023-03-01T05:32:07;16.77;;;10.30;;
64242;SDS011;50573;51.512;5.386;2023-03-01T05:42:16;17.77;;;10.55;;
64242;SDS011;50573;51.512;5.386;2023-03-01T05:52:20;20.00;;;11.38;;
64242;SDS011;50573;51.512;5.386;2023-03-01T06:02:23;17.85;;;10.50;;
64242;SDS011;50573;51.512;5.386;2023-03-01T06:12:30;20.75;;;10.57;;
64242;SDS011;50573;51.512;5.386;2023-03-01T06:22:34;19.02;;;10.25;;
64242;SDS011;50573;51.512;5.386;2023-03-01T06:32:38;20.20;;;12.05;;
64242;SDS011;50573;51.512;5.386;2023-03-01T06:42:44;20.15;;;10.90;;
64242;SDS011;50573;51.512;5.386;2023-03-01T06:52:56;21.50;;;12.00;;
64242;SDS011;50573;51.512;5.386;2023-03-01T07:02:59;24.13;;;11.68;;
64242;SDS011;50573;51.512;5.386;2023-03-01T07:23:09;23.80;;;11.13;;
64242;SDS011;50573;51.512;5.386;2023-03-01T07:33:13;24.58;;;12.85;;
64242;SDS011;50573;51.512;5.386;2023-03-01T07:43:16;21.38;;;11.18;;
64242;SDS011;50573;51.512;5.386;2023-03-01T07:53:21;17.20;;;10.85;;
64242;SDS011;50573;51.512;5.386;2023-03-01T08:03:24;19.10;;;11.50;;
64242;SDS011;50573;51.512;5.386;2023-03-01T08:13:28;18.00;;;11.70;;
64242;SDS011;50573;51.512;5.386;2023-03-01T08:23:33;21.00;;;11.27;;
64242;SDS011;50573;51.512;5.386;2023-03-01T08:33:37;21.25;;;11.48;;
64242;SDS011;50573;51.512;5.386;2023-03-01T08:43:40;18.90;;;11.67;;
64242;SDS011;50573;51.512;5.386;2023-03-01T08:53:45;20.90;;;11.07;;
64242;SDS011;50573;51.512;5.386;2023-03-01T09:03:48;17.42;;;10.98;;
64242;SDS011;50573;51.512;5.386;2023-03-01T09:13:53;18.23;;;10.80;;
64242;SDS011;50573;51.512;5.386;2023-03-01T09:23:56;19.38;;;9.25;;
64242;SDS011;50573;51.512;5.386;2023-03-01T09:34:02;14.33;;;8.10;;
64242;SDS011;50573;51.512;5.386;2023-03-01T09:44:07;17.07;;;9.03;;
64242;SDS011;50573;51.512;5.386;2023-03-01T09:54:19;14.68;;;9.95;;
64242;SDS011;50573;51.512;5.386;2023-03-01T10:04:33;13.23;;;8.63;;
64242;SDS011;50573;51.512;5.386;2023-03-01T10:24:56;14.35;;;8.20;;
64242;SDS011;50573;51.512;5.386;2023-03-01T10:35:16;13.50;;;8.60;;
64242;SDS011;50573;51.512;5.386;2023-03-01T10:45:30;13.77;;;9.15;;
64242;SDS011;50573;51.512;5.386;2023-03-01T10:55:36;15.52;;;9.60;;
64242;SDS011;50573;51.512;5.386;2023-03-01T11:05:52;17.17;;;8.38;;
64242;SDS011;50573;51.512;5.386;2023-03-01T11:16:03;14.80;;;8.80;;
64242;SDS011;50573;51.512;5.386;2023-03-01T11:26:09;17.20;;;9.45;;
64242;SDS011;50573;51.512;5.386;2023-03-01T11:36:18;16.10;;;10.77;;
64242;SDS011;50573;51.512;5.386;2023-03-01T11:46:31;15.23;;;9.00;;
64242;SDS011;50573;51.512;5.386;2023-03-01T11:56:57;15.90;;;9.70;;
64242;SDS011;50573;51.512;5.386;2023-03-01T12:07:04;13.98;;;9.65;;
64242;SDS011;50573;51.512;5.386;2023-03-01T12:17:35;17.63;;;9.88;;
64242;SDS011;50573;51.512;5.386;2023-03-01T12:38:36;14.23;;;8.57;;
64242;SDS011;50573;51.512;5.386;2023-03-01T12:48:47;11.60;;;8.67;;
64242;SDS011;50573;51.512;5.386;2023-03-01T12:58:59;15.63;;;9.40;;
64242;SDS011;50573;51.512;5.386;2023-03-01T13:09:13;13.27;;;9.02;;
64242;SDS011;50573;51.512;5.386;2023-03-01T13:19:24;14.07;;;9.00;;
64242;SDS011;50573;51.512;5.386;2023-03-01T13:29:30;12.52;;;8.65;;
64242;SDS011;50573;51.512;5.386;2023-03-01T13:39:48;14.38;;;7.88;;
64242;SDS011;50573;51.512;5.386;2023-03-01T13:49:51;13.88;;;8.48;;
64242;SDS011;50573;51.512;5.386;2023-03-01T14:00:01;18.42;;;8.10;;
64242;SDS011;50573;51.512;5.386;2023-03-01T14:10:05;11.07;;;8.20;;
64242;SDS011;50573;51.512;5.386;2023-03-01T14:20:13;11.30;;;7.93;;
64242;SDS011;50573;51.512;5.386;2023-03-01T14:30:21;15.60;;;8.45;;
64242;SDS011;50573;51.512;5.386;2023-03-01T14:40:28;13.68;;;8.70;;
64242;SDS011;50573;51.512;5.386;2023-03-01T14:50:33;12.48;;;8.82;;
64242;SDS011;50573;51.512;5.386;2023-03-01T15:00:46;18.48;;;8.32;;
64242;SDS011;50573;51.512;5.386;2023-03-01T15:10:57;15.10;;;8.93;;
64242;SDS011;50573;51.512;5.386;2023-03-01T15:21:15;14.63;;;8.50;;
64242;SDS011;50573;51.512;5.386;2023-03-01T15:31:20;18.13;;;8.55;;
64242;SDS011;50573;51.512;5.386;2023-03-01T15:41:28;13.35;;;9.20;;
64242;SDS011;50573;51.512;5.386;2023-03-01T15:51:37;15.38;;;9.35;;
64242;SDS011;50573;51.512;5.386;2023-03-01T16:01:42;14.65;;;10.15;;
64242;SDS011;50573;51.512;5.386;2023-03-01T16:21:50;17.83;;;10.85;;
64242;SDS011;50573;51.512;5.386;2023-03-01T16:31:53;16.60;;;9.83;;
64242;SDS011;50573;51.512;5.386;2023-03-01T16:41:57;22.02;;;10.70;;
64242;SDS011;50573;51.512;5.386;2023-03-01T16:52:02;16.75;;;10.07;;
64242;SDS011;50573;51.512;5.386;2023-03-01T17:02:08;18.33;;;10.23;;
64242;SDS011;50573;51.512;5.386;2023-03-01T17:12:14;18.48;;;10.73;;
64242;SDS011;50573;51.512;5.386;2023-03-01T17:22:19;23.90;;;10.13;;
64242;SDS011;50573;51.512;5.386;2023-03-01T17:32:22;18.00;;;10.43;;
64242;SDS011;50573;51.512;5.386;2023-03-01T17:42:27;27.80;;;12.35;;
64242;SDS011;50573;51.512;5.386;2023-03-01T17:52:30;18.70;;;10.67;;
64242;SDS011;50573;51.512;5.386;2023-03-01T18:02:34;35.35;;;14.07;;
64242;SDS011;50573;51.512;5.386;2023-03-01T18:12:37;33.83;;;16.57;;
64242;SDS011;50573;51.512;5.386;2023-03-01T18:22:42;28.70;;;15.45;;
64242;SDS011;50573;51.512;5.386;2023-03-01T18:32:45;27.27;;;15.77;;
64242;SDS011;50573;51.512;5.386;2023-03-01T18:42:50;22.42;;;11.77;;
64242;SDS011;50573;51.512;5.386;2023-03-01T18:52:53;21.60;;;11.13;;
64242;SDS011;50573;51.512;5.386;2023-03-01T19:02:57;21.23;;;11.38;;
64242;SDS011;50573;51.512;5.386;2023-03-01T19:13:01;20.15;;;11.40;;
64242;SDS011;50573;51.512;5.386;2023-03-01T19:23:06;15.15;;;9.32;;
64242;SDS011;50573;51.512;5.386;2023-03-01T19:43:14;16.48;;;9.80;;
64242;SDS011;50573;51.512;5.386;2023-03-01T19:53:17;15.63;;;9.47;;
64242;SDS011;50573;51.512;5.386;2023-03-01T20:03:21;16.40;;;9.20;;
64242;SDS011;50573;51.512;5.386;2023-03-01T20:13:25;24.02;;;11.00;;
64242;SDS011;50573;51.512;5.386;2023-03-01T20:23:29;16.17;;;8.73;;
64242;SDS011;50573;51.512;5.386;2023-03-01T20:33:32;13.13;;;7.87;;
64242;SDS011;50573;51.512;5.386;2023-03-01T20:43:37;16.98;;;8.25;;
64242;SDS011;50573;51.512;5.386;2023-03-01T20:53:42;12.93;;;7.65;;
64242;SDS011;50573;51.512;5.386;2023-03-01T21:03:46;14.80;;;8.05;;
64242;SDS011;50573;51.512;5.386;2023-03-01T21:13:49;20.17;;;10.90;;
64242;SDS011;50573;51.512;5.386;2023-03-01T21:23:54;21.60;;;10.30;;
64242;SDS011;50573;51.512;5.386;2023-03-01T21:33:58;30.95;;;13.82;;
64242;SDS011;50573;51.512;5.386;2023-03-01T21:44:03;25.87;;;13.03;;
64242;SDS011;50573;51.512;5.386;2023-03-01T21:54:08;16.02;;;7.35;;
64242;SDS011;50573;51.512;5.386;2023-03-01T22:04:15;22.25;;;8.57;;
64242;SDS011;50573;51.512;5.386;2023-03-01T22:24:23;17.50;;;8.43;;
64242;SDS011;50573;51.512;5.386;2023-03-01T22:34:27;13.63;;;7.05;;
64242;SDS011;50573;51.512;5.386;2023-03-01T22:44:32;13.43;;;7.27;;
64242;SDS011;50573;51.512;5.386;2023-03-01T22:54:35;12.37;;;7.60;;
64242;SDS011;50573;51.512;5.386;2023-03-01T23:04:39;13.00;;;6.95;;
64242;SDS011;50573;51.512;5.386;2023-03-01T23:14:44;13.63;;;7.75;;
64242;SDS011;50573;51.512;5.386;2023-03-01T23:24:48;16.25;;;7.38;;
64242;SDS011;50573;51.512;5.386;2023-03-01T23:34:51;15.43;;;7.20;;
64242;SDS011;50573;51.512;5.386;2023-03-01T23:44:56;13.20;;;7.47;;
64242;SDS011;50573;51.512;5.386;2023-03-01T23:54:59;14.52;;;7.97;;
